Time;durP1;ratioP1;P1;durP2;ratioP2;P2;SDS_P1;SDS_P2;PMS_P1;PMS_P2;Temp;Humidity;BMP_temperature;BMP_pressure;BME280_temperature;BME280_humidity;BME280_pressure;Samples;Min_cycle;Max_cycle;Signal;HPM_P1;HPM_P2
2023/03/28 00:01:55;;;;;;;11.93;2.42;;;2.20;99.90;;;;;;5058084;28;20047;-77
2023/03/28 00:04:22;;;;;;;14.48;2.75;;;2.20;99.90;;;;;;5073935;28;20472;-77
2023/03/28 00:06:49;;;;;;;10.48;2.45;;;2.10;99.90;;;;;;5077553;28;20047;-76
2023/03/28 00:09:16;;;;;;;12.65;2.42;;;2.10;99.90;;;;;;5077422;28;20530;-77
2023/03/28 00:11:42;;;;;;;13.25;2.50;;;2.10;99.90;;;;;;5053371;28;20055;-77
2023/03/28 00:14:08;;;;;;;14.70;2.50;;;2.10;99.90;;;;;;5069196;28;20044;-77
2023/03/28 00:16:38;;;;;;;10.20;2.10;;;2.00;99.90;;;;;;5077295;28;20127;-76
2023/03/28 00:19:12;;;;;;;14.10;2.20;;;2.00;99.90;;;;;;5085382;28;20064;-77
2023/03/28 00:21:40;;;;;;;11.88;2.55;;;2.00;99.90;;;;;;5073668;28;20133;-77
2023/03/28 00:24:12;;;;;;;12.18;2.20;;;2.00;99.90;;;;;;5077342;28;20422;-77
2023/03/28 00:26:38;;;;;;;;;;;1.90;99.90;;;;;;5077359;28;20129;-77
2023/03/28 00:29:07;;;;;;;10.65;2.45;;;1.90;99.90;;;;;;5094407;28;20372;-77
2023/03/28 00:31:36;;;;;;;14.57;2.50;;;1.90;99.90;;;;;;5077192;28;20082;-77
2023/03/28 00:34:03;;;;;;;15.38;2.60;;;1.80;99.90;;;;;;5064250;28;20488;-77
2023/03/28 00:36:31;;;;;;;14.80;2.45;;;1.80;99.90;;;;;;5075396;28;20531;-77
2023/03/28 00:39:00;;;;;;;12.43;2.72;;;1.80;99.90;;;;;;5077207;28;20052;-76
2023/03/28 00:41:29;;;;;;;14.68;2.50;;;1.80;99.90;;;;;;5076997;28;20055;-77
2023/03/28 00:43:56;;;;;;;11.95;2.25;;;1.70;99.90;;;;;;5060646;28;20078;-77
2023/03/28 00:46:31;;;;;;;14.07;2.67;;;1.70;99.90;;;;;;5076591;28;20051;-77
2023/03/28 00:49:12;;;;;;;11.65;2.30;;;1.70;99.90;;;;;;5076650;28;20050;-77
2023/03/28 00:51:43;;;;;;;15.10;2.47;;;1.60;99.90;;;;;;5072695;28;20040;-77
2023/03/28 00:54:13;;;;;;;15.20;2.50;;;1.60;99.90;;;;;;5067797;28;20047;-76
2023/03/28 00:56:42;;;;;;;13.73;2.35;;;1.60;99.90;;;;;;5060300;28;20044;-76
2023/03/28 00:59:12;;;;;;;13.05;2.42;;;1.60;99.90;;;;;;5077097;28;20047;-76
2023/03/28 01:01:38;;;;;;;13.77;2.40;;;1.60;99.90;;;;;;5062189;28;20080;-77
2023/03/28 01:04:05;;;;;;;12.13;2.20;;;1.50;99.90;;;;;;5075776;28;20072;-77
2023/03/28 01:06:39;;;;;;;11.93;2.55;;;1.50;99.90;;;;;;5059345;28;20043;-77
2023/03/28 01:09:06;;;;;;;14.73;2.50;;;1.40;99.90;;;;;;5076327;28;20040;-78
2023/03/28 01:11:37;;;;;;;18.67;2.80;;;1.50;99.90;;;;;;5094488;28;20085;-77
2023/03/28 01:14:03;;;;;;;10.60;2.20;;;1.50;99.90;;;;;;5076559;28;20434;-77
2023/03/28 01:16:29;;;;;;;15.52;2.78;;;1.40;99.90;;;;;;5076409;28;20137;-78
2023/03/28 01:19:00;;;;;;;10.90;2.50;;;1.40;99.90;;;;;;5071654;28;20087;-77
2023/03/28 01:21:48;;;;;;;14.98;2.60;;;1.40;99.90;;;;;;5067349;28;20051;-77
2023/03/28 01:24:20;;;;;;;13.18;2.58;;;1.40;99.90;;;;;;5075589;28;20044;-77
2023/03/28 01:26:53;;;;;;;12.60;2.60;;;1.40;99.90;;;;;;5075975;28;20039;-77
2023/03/28 01:29:28;;;;;;;12.80;2.63;;;1.30;99.90;;;;;;5075955;28;20100;-77
2023/03/28 01:32:31;;;;;;;16.67;2.80;;;1.30;99.90;;;;;;5075567;28;20036;-78
2023/03/28 01:35:13;;;;;;;15.27;2.50;;;1.30;99.90;;;;;;5069203;28;20036;-77
2023/03/28 01:37:54;;;;;;;;;;;1.30;99.90;;;;;;5076307;28;20048;-77
2023/03/28 01:40:39;;;;;;;10.05;2.25;;;1.20;99.90;;;;;;5075380;28;20003;-78
2023/03/28 01:43:23;;;;;;;14.18;2.53;;;1.30;99.90;;;;;;5075777;28;20044;-77
2023/03/28 01:46:00;;;;;;;14.25;2.40;;;1.20;99.90;;;;;;5075872;28;20085;-78
2023/03/28 01:48:50;;;;;;;13.90;2.40;;;1.20;99.90;;;;;;5075183;28;20105;-77
2023/03/28 01:51:52;;;;;;;11.95;2.35;;;1.20;99.90;;;;;;5064479;28;20040;-78
2023/03/28 01:54:36;;;;;;;14.57;2.40;;;1.10;99.90;;;;;;5055489;28;20056;-77
2023/03/28 01:57:12;;;;;;;16.02;2.58;;;1.20;99.90;;;;;;5080747;28;20127;-78
2023/03/28 01:59:46;;;;;;;18.10;2.70;;;1.20;99.90;;;;;;5075690;28;20040;-79
2023/03/28 02:02:37;;;;;;;16.23;2.70;;;1.30;99.90;;;;;;5093273;28;20085;-79
2023/03/28 02:05:08;;;;;;;14.80;2.42;;;1.20;99.90;;;;;;5074857;28;20083;-79
2023/03/28 02:07:34;;;;;;;16.70;2.50;;;1.20;99.90;;;;;;5058672;28;20055;-78
2023/03/28 02:10:03;;;;;;;12.55;2.30;;;1.10;99.90;;;;;;5075075;28;20472;-79
2023/03/28 02:12:37;;;;;;;13.10;2.50;;;1.10;99.90;;;;;;5075018;28;20071;-79
2023/03/28 02:15:07;;;;;;;12.02;2.20;;;1.10;99.90;;;;;;5058382;28;20040;-79
2023/03/28 02:17:39;;;;;;;14.25;2.50;;;1.10;99.90;;;;;;5074311;28;20491;-79
2023/03/28 02:20:10;;;;;;;17.67;2.22;;;1.00;99.90;;;;;;5057634;28;20156;-79
2023/03/28 02:22:50;;;;;;;18.13;2.73;;;1.00;99.90;;;;;;5086783;28;20495;-79
2023/03/28 02:25:17;;;;;;;12.70;2.38;;;1.00;99.90;;;;;;5069325;28;20048;-79
2023/03/28 02:27:46;;;;;;;9.52;1.90;;;1.00;99.90;;;;;;5057781;28;20055;-79
2023/03/28 02:30:12;;;;;;;16.48;2.55;;;1.00;99.90;;;;;;5067835;28;20105;-79
2023/03/28 02:32:39;;;;;;;14.10;2.50;;;1.00;99.90;;;;;;5073661;28;20089;-79
2023/03/28 02:35:06;;;;;;;11.27;2.30;;;1.00;99.90;;;;;;5082514;28;20119;-79
2023/03/28 02:38:02;;;;;;;10.57;2.13;;;1.00;99.90;;;;;;5057771;28;20093;-79
2023/03/28 02:40:57;;;;;;;17.25;2.60;;;1.00;99.90;;;;;;5058761;28;20127;-79
2023/03/28 02:43:53;;;;;;;17.75;2.55;;;1.00;99.90;;;;;;5047200;28;20055;-79
2023/03/28 02:46:29;;;;;;;14.40;2.17;;;1.00;99.90;;;;;;5074827;28;20422;-79
2023/03/28 02:49:19;;;;;;;12.18;2.42;;;1.00;99.90;;;;;;5074738;28;20086;-79
2023/03/28 02:51:57;;;;;;;13.23;2.38;;;1.00;99.90;;;;;;5074425;28;20379;-79
2023/03/28 02:54:33;;;;;;;14.07;2.20;;;1.00;99.90;;;;;;5074951;28;20055;-79
2023/03/28 02:57:02;;;;;;;12.55;2.47;;;1.00;99.90;;;;;;5075453;28;20471;-79
2023/03/28 02:59:51;;;;;;;13.80;2.25;;;1.00;99.90;;;;;;5074804;28;20040;-79
2023/03/28 03:02:20;;;;;;;17.30;2.53;;;1.00;99.90;;;;;;5058530;28;20040;-79
2023/03/28 03:04:49;;;;;;;14.77;2.50;;;1.00;99.90;;;;;;5073836;28;20109;-79
2023/03/28 03:07:16;;;;;;;14.73;2.50;;;1.00;99.90;;;;;;5074983;28;20040;-79
2023/03/28 03:09:44;;;;;;;12.52;2.25;;;1.00;99.90;;;;;;5074996;28;20088;-80
2023/03/28 03:12:11;;;;;;;13.52;2.40;;;1.00;99.90;;;;;;5074522;28;20034;-79
2023/03/28 03:14:37;;;;;;;14.15;2.63;;;1.00;99.90;;;;;;5075051;28;20149;-79
2023/03/28 03:17:05;;;;;;;15.07;2.70;;;1.10;99.90;;;;;;5074285;28;20044;-79
2023/03/28 03:19:33;;;;;;;10.70;2.20;;;1.10;99.90;;;;;;5057465;28;20052;-79
2023/03/28 03:22:00;;;;;;;15.57;2.90;;;1.10;99.90;;;;;;5073715;28;20067;-80
2023/03/28 03:24:27;;;;;;;15.90;2.35;;;1.60;99.90;;;;;;5079594;28;20040;-79
2023/03/28 03:26:52;;;;;;;15.02;2.70;;;1.10;99.90;;;;;;5058923;28;20040;-79
2023/03/28 03:29:18;;;;;;;14.90;2.50;;;1.00;99.90;;;;;;5062271;28;20123;-79
2023/03/28 03:31:44;;;;;;;10.60;2.40;;;1.10;99.90;;;;;;5078960;28;20045;-79
2023/03/28 03:34:10;;;;;;;14.60;2.42;;;1.10;99.90;;;;;;5064728;28;20047;-79
2023/03/28 03:36:36;;;;;;;12.60;2.20;;;1.40;99.90;;;;;;5085340;28;20050;-79
2023/03/28 03:39:02;;;;;;;12.98;2.40;;;1.10;99.90;;;;;;5062791;28;20047;-78
2023/03/28 03:41:28;;;;;;;14.43;2.80;;;1.00;99.90;;;;;;5078830;28;20044;-79
2023/03/28 03:43:54;;;;;;;12.07;2.55;;;1.00;99.90;;;;;;5095985;28;20169;-79
2023/03/28 03:46:20;;;;;;;12.73;2.60;;;1.00;99.90;;;;;;5059238;28;20078;-80
2023/03/28 03:48:46;;;;;;;15.00;2.83;;;1.00;99.90;;;;;;5086485;28;20101;-80
2023/03/28 03:51:12;;;;;;;16.45;2.70;;;0.90;99.90;;;;;;5078771;28;20035;-79
2023/03/28 03:53:39;;;;;;;17.52;2.63;;;0.90;99.90;;;;;;5078021;28;20115;-79
2023/03/28 03:56:06;;;;;;;12.75;2.67;;;0.90;99.90;;;;;;5078735;28;20097;-79
2023/03/28 03:58:31;;;;;;;14.85;2.30;;;0.90;99.90;;;;;;5078214;28;20062;-80
2023/03/28 04:00:58;;;;;;;11.48;2.17;;;1.10;99.90;;;;;;5078283;28;20127;-79
2023/03/28 04:03:25;;;;;;;10.85;2.00;;;0.80;99.90;;;;;;5060390;28;20130;-80
2023/03/28 04:05:51;;;;;;;11.32;2.40;;;0.80;99.90;;;;;;5061282;28;20047;-79
2023/03/28 04:08:17;;;;;;;14.70;2.58;;;0.80;99.90;;;;;;5060954;28;20040;-80
2023/03/28 04:10:43;;;;;;;13.98;2.53;;;0.80;99.90;;;;;;5078330;28;20105;-80
2023/03/28 04:13:09;;;;;;;13.50;2.50;;;0.80;99.90;;;;;;5058097;28;20526;-80
2023/03/28 04:15:35;;;;;;;9.63;2.10;;;0.70;99.90;;;;;;5061382;28;20040;-80
2023/03/28 04:18:03;;;;;;;10.50;2.10;;;1.70;99.90;;;;;;5060218;28;20048;-80
2023/03/28 04:20:30;;;;;;;14.93;2.45;;;0.60;99.90;;;;;;5040814;28;20151;-79
2023/03/28 04:22:59;;;;;;;15.02;2.40;;;0.60;99.90;;;;;;5069846;28;20048;-79
2023/03/28 04:25:25;;;;;;;13.18;2.60;;;1.00;99.90;;;;;;5074514;28;20056;-78
2023/03/28 04:27:53;;;;;;;12.30;2.33;;;0.50;99.90;;;;;;5061117;28;20460;-78
2023/03/28 04:30:20;;;;;;;11.40;2.25;;;0.50;99.90;;;;;;5095553;28;20392;-79
2023/03/28 04:32:53;;;;;;;11.50;2.40;;;0.50;99.90;;;;;;5056527;28;20118;-79
2023/03/28 04:35:19;;;;;;;16.58;2.63;;;0.50;99.90;;;;;;5060260;28;20083;-79
2023/03/28 04:37:46;;;;;;;15.27;2.90;;;0.40;99.90;;;;;;5076983;28;20044;-79
2023/03/28 04:40:15;;;;;;;12.48;2.40;;;0.40;99.90;;;;;;5060028;28;20066;-79
2023/03/28 04:42:42;;;;;;;12.20;2.50;;;0.40;99.90;;;;;;5057192;28;20383;-78
2023/03/28 04:45:08;;;;;;;11.95;2.65;;;0.50;99.90;;;;;;5076983;28;20047;-79
2023/03/28 04:47:38;;;;;;;13.00;2.67;;;0.40;99.90;;;;;;5076908;28;20040;-79
2023/03/28 04:50:08;;;;;;;10.85;2.13;;;0.40;99.90;;;;;;5073357;28;20039;-79
2023/03/28 04:52:35;;;;;;;11.90;2.67;;;0.30;99.90;;;;;;5060280;28;20044;-78
2023/03/28 04:55:00;;;;;;;18.88;2.92;;;0.30;99.90;;;;;;5076224;28;20535;-80
2023/03/28 04:57:26;;;;;;;12.52;2.58;;;0.80;99.90;;;;;;5090008;28;20124;-79
2023/03/28 04:59:52;;;;;;;12.05;2.70;;;0.50;99.90;;;;;;5065511;28;20072;-79
2023/03/28 05:02:18;;;;;;;14.32;2.47;;;0.30;99.90;;;;;;5076229;28;20040;-79
2023/03/28 05:04:43;;;;;;;13.48;2.60;;;0.80;99.90;;;;;;5058327;28;20048;-78
2023/03/28 05:07:09;;;;;;;13.65;2.78;;;0.30;99.90;;;;;;5057762;28;20036;-79
2023/03/28 05:09:36;;;;;;;12.73;2.50;;;0.30;99.90;;;;;;5052564;28;20046;-78
2023/03/28 05:12:02;;;;;;;13.52;2.75;;;0.30;99.90;;;;;;5076361;28;20036;-79
2023/03/28 05:14:28;;;;;;;16.55;2.65;;;0.20;99.90;;;;;;5075395;28;20046;-80
2023/03/28 05:16:53;;;;;;;12.90;2.40;;;0.30;99.90;;;;;;5042111;28;20079;-79
2023/03/28 05:19:19;;;;;;;11.85;2.45;;;0.70;99.90;;;;;;5089097;28;20058;-79
2023/03/28 05:21:45;;;;;;;11.55;2.47;;;0.20;99.90;;;;;;5077702;28;20082;-78
2023/03/28 05:24:11;;;;;;;12.30;2.42;;;0.60;99.90;;;;;;5048755;28;20063;-79
2023/03/28 05:26:37;;;;;;;11.23;2.30;;;0.20;99.90;;;;;;5092944;28;20047;-79
2023/03/28 05:29:03;;;;;;;12.68;2.30;;;0.20;99.90;;;;;;5059835;28;20040;-78
2023/03/28 05:31:29;;;;;;;13.40;2.45;;;0.90;99.90;;;;;;5072474;28;20043;-79
2023/03/28 05:33:55;;;;;;;9.63;2.17;;;0.90;99.90;;;;;;5079269;28;20047;-79
2023/03/28 05:36:22;;;;;;;12.32;2.50;;;0.20;99.90;;;;;;5063124;28;20040;-78
2023/03/28 05:38:48;;;;;;;13.18;2.17;;;0.30;99.90;;;;;;5080069;28;20048;-78
2023/03/28 05:41:14;;;;;;;12.88;2.60;;;0.40;99.90;;;;;;5093637;28;20104;-79
2023/03/28 05:43:40;;;;;;;12.77;2.45;;;0.30;99.90;;;;;;5075348;28;20089;-79
2023/03/28 05:46:06;;;;;;;13.82;2.90;;;0.20;99.90;;;;;;5073835;28;20048;-78
2023/03/28 05:48:32;;;;;;;17.27;2.97;;;0.20;99.90;;;;;;5091010;28;20047;-80
2023/03/28 05:50:58;;;;;;;13.02;2.75;;;0.30;99.90;;;;;;5084182;28;20044;-79
2023/03/28 05:53:24;;;;;;;13.73;2.55;;;1.00;99.90;;;;;;5073134;28;20043;-78
2023/03/28 05:55:50;;;;;;;10.98;2.50;;;0.30;99.90;;;;;;5056629;28;20472;-79
2023/03/28 05:58:18;;;;;;;10.23;2.30;;;0.30;99.90;;;;;;5056698;28;20117;-79
2023/03/28 06:00:45;;;;;;;17.45;2.75;;;0.40;99.90;;;;;;5091874;28;20044;-79
2023/03/28 06:03:13;;;;;;;14.02;2.60;;;0.40;99.90;;;;;;5074317;28;20388;-79
2023/03/28 06:05:39;;;;;;;12.60;2.60;;;0.50;99.90;;;;;;5074672;28;20048;-79
2023/03/28 06:08:05;;;;;;;14.63;2.85;;;0.90;99.90;;;;;;5058532;28;20050;-79
2023/03/28 06:10:31;;;;;;;12.75;2.63;;;0.70;99.90;;;;;;5075242;28;20101;-78
2023/03/28 06:12:56;;;;;;;14.05;3.00;;;0.70;99.90;;;;;;5053443;28;20040;-79
2023/03/28 06:15:22;;;;;;;13.13;2.70;;;0.80;99.90;;;;;;5069210;28;20554;-78
2023/03/28 06:17:48;;;;;;;15.23;2.83;;;1.10;99.90;;;;;;5039398;28;20128;-78
2023/03/28 06:20:14;;;;;;;18.77;3.03;;;1.20;99.90;;;;;;5084034;28;20051;-79
2023/03/28 06:22:40;;;;;;;17.90;3.40;;;1.30;99.90;;;;;;5088071;28;20123;-78
2023/03/28 06:25:06;;;;;;;13.30;3.08;;;1.50;99.90;;;;;;5082652;28;20495;-78
2023/03/28 06:27:33;;;;;;;12.30;2.60;;;1.60;99.90;;;;;;5092417;28;20380;-77
2023/03/28 06:29:59;;;;;;;11.95;3.08;;;2.10;99.90;;;;;;5074908;28;20432;-78
2023/03/28 06:32:25;;;;;;;13.43;2.92;;;2.60;99.90;;;;;;5075735;28;20043;-78
2023/03/28 06:34:51;;;;;;;15.82;2.90;;;2.90;99.90;;;;;;5066158;28;20040;-80
2023/03/28 06:37:16;;;;;;;13.07;3.05;;;3.30;99.90;;;;;;5092246;28;20157;-77
2023/03/28 06:39:42;;;;;;;10.48;2.58;;;3.50;99.90;;;;;;5092914;28;20605;-76
2023/03/28 06:42:08;;;;;;;12.30;3.10;;;3.80;99.90;;;;;;5092660;28;20379;-76
2023/03/28 06:44:34;;;;;;;15.25;3.28;;;4.40;99.90;;;;;;5075217;28;20490;-77
2023/03/28 06:46:59;;;;;;;11.27;2.72;;;5.50;99.90;;;;;;5088607;28;20486;-78
2023/03/28 06:49:25;;;;;;;13.43;2.70;;;5.60;99.90;;;;;;5057025;28;20467;-78
2023/03/28 06:51:51;;;;;;;12.55;2.75;;;6.00;99.90;;;;;;5075059;28;20039;-78
2023/03/28 06:54:17;;;;;;;10.73;2.47;;;6.40;99.90;;;;;;5069323;28;20038;-78
2023/03/28 06:56:43;;;;;;;8.38;2.20;;;6.50;99.90;;;;;;5074857;28;20131;-78
2023/03/28 06:59:09;;;;;;;8.05;2.22;;;7.00;99.90;;;;;;5057517;28;20043;-78
2023/03/28 07:01:35;;;;;;;15.38;2.67;;;7.30;99.90;;;;;;5054252;28;20058;-78
2023/03/28 07:04:01;;;;;;;10.98;2.67;;;7.50;99.90;;;;;;5079415;28;20032;-78
2023/03/28 07:06:27;;;;;;;12.75;2.40;;;7.80;99.90;;;;;;5064095;28;20106;-78
2023/03/28 07:08:58;;;;;;;10.50;2.60;;;7.40;99.90;;;;;;5078244;28;20054;-77
2023/03/28 07:11:24;;;;;;;11.00;2.40;;;7.60;99.90;;;;;;5082825;28;20098;-78
2023/03/28 07:13:49;;;;;;;8.80;2.45;;;7.90;99.90;;;;;;5087440;28;20421;-78
2023/03/28 07:16:16;;;;;;;8.88;2.10;;;8.30;99.90;;;;;;5076242;28;20060;-77
2023/03/28 07:18:43;;;;;;;9.80;2.22;;;8.60;99.90;;;;;;5079316;28;20483;-77
2023/03/28 07:21:14;;;;;;;8.13;2.20;;;8.90;99.90;;;;;;5082672;28;20123;-77
2023/03/28 07:23:40;;;;;;;8.70;2.33;;;9.20;99.90;;;;;;5105537;28;20395;-77
2023/03/28 07:26:08;;;;;;;9.88;2.17;;;8.90;99.90;;;;;;5071662;28;20036;-77
2023/03/28 07:28:34;;;;;;;10.00;2.42;;;8.90;99.90;;;;;;5068081;28;20118;-78
2023/03/28 07:31:01;;;;;;;12.50;2.20;;;8.60;99.90;;;;;;5081830;28;20051;-77
2023/03/28 07:33:31;;;;;;;8.95;2.20;;;8.60;99.90;;;;;;5054471;28;20071;-77
2023/03/28 07:35:57;;;;;;;10.18;2.20;;;8.50;99.90;;;;;;5081800;28;20364;-77
2023/03/28 07:38:23;;;;;;;8.13;1.92;;;8.40;99.90;;;;;;5081678;28;20136;-77
2023/03/28 07:40:49;;;;;;;10.18;2.10;;;8.60;99.90;;;;;;5065042;28;20105;-77
2023/03/28 07:43:15;;;;;;;9.48;2.10;;;8.80;99.90;;;;;;5095532;28;20497;-77
2023/03/28 07:45:41;;;;;;;8.63;2.00;;;9.10;99.90;;;;;;5058701;28;20049;-77
2023/03/28 07:48:07;;;;;;;8.95;2.30;;;9.10;99.90;;;;;;5076999;28;20060;-77
2023/03/28 07:50:33;;;;;;;9.35;2.10;;;9.60;99.90;;;;;;5093742;28;20122;-77
2023/03/28 07:52:59;;;;;;;8.88;1.98;;;9.50;99.90;;;;;;5079430;28;20483;-77
2023/03/28 07:55:27;;;;;;;9.00;2.10;;;9.20;99.90;;;;;;5074654;28;20491;-77
2023/03/28 07:57:53;;;;;;;9.38;2.03;;;9.00;99.90;;;;;;5073529;28;20454;-76
2023/03/28 08:00:22;;;;;;;11.35;2.10;;;9.00;99.90;;;;;;5078071;28;20040;-77
2023/03/28 08:02:50;;;;;;;9.93;2.20;;;8.90;99.90;;;;;;5060452;28;20047;-77
2023/03/28 08:05:17;;;;;;;9.75;1.98;;;8.70;99.90;;;;;;5061178;28;20040;-77
2023/03/28 08:07:46;;;;;;;11.20;2.33;;;8.70;99.90;;;;;;5068000;28;20073;-77
2023/03/28 08:10:12;;;;;;;8.32;2.03;;;8.60;99.90;;;;;;5071803;28;20098;-77
2023/03/28 08:12:38;;;;;;;9.23;2.03;;;8.40;99.90;;;;;;5077361;28;20106;-77
2023/03/28 08:15:05;;;;;;;10.43;2.00;;;8.30;99.90;;;;;;5079064;28;20043;-77
2023/03/28 08:17:31;;;;;;;9.95;2.10;;;8.30;99.90;;;;;;5081258;28;20050;-77
2023/03/28 08:19:57;;;;;;;8.32;1.88;;;8.30;99.90;;;;;;5075365;28;20123;-77
2023/03/28 08:22:25;;;;;;;8.50;2.10;;;8.30;99.90;;;;;;5073238;28;20051;-77
2023/03/28 08:24:51;;;;;;;9.57;2.20;;;8.30;99.90;;;;;;5067676;28;20043;-77
2023/03/28 08:27:17;;;;;;;8.80;2.00;;;8.30;99.90;;;;;;5094870;28;20043;-77
2023/03/28 08:29:42;;;;;;;8.35;2.05;;;8.30;99.90;;;;;;5077839;28;20383;-77
2023/03/28 08:32:09;;;;;;;10.38;2.10;;;8.40;99.90;;;;;;5094218;28;20044;-78
2023/03/28 08:34:35;;;;;;;10.13;1.92;;;8.40;99.90;;;;;;5075136;28;20036;-77
2023/03/28 08:37:00;;;;;;;11.23;2.28;;;8.40;99.90;;;;;;5076005;28;20040;-76
2023/03/28 08:39:26;;;;;;;9.52;2.03;;;8.30;99.90;;;;;;5055526;28;20483;-77
2023/03/28 08:42:10;;;;;;;8.85;1.65;;;8.30;99.90;;;;;;5055589;28;20071;-77
2023/03/28 08:44:55;;;;;;;8.40;2.00;;;8.30;99.90;;;;;;5073590;28;20044;-77
2023/03/28 08:47:27;;;;;;;9.63;1.98;;;8.30;99.90;;;;;;5092255;28;20116;-77
2023/03/28 08:50:08;;;;;;;;;;;8.30;99.90;;;;;;5080548;28;20495;-77
2023/03/28 08:52:34;;;;;;;6.80;1.80;;;8.30;99.90;;;;;;5093263;28;20259;-77
2023/03/28 08:55:05;;;;;;;8.07;1.95;;;8.30;99.90;;;;;;5094775;28;20036;-77
2023/03/28 08:57:34;;;;;;;10.40;1.80;;;8.20;99.90;;;;;;5077349;28;20070;-77
2023/03/28 09:00:13;;;;;;;7.10;1.60;;;8.30;99.90;;;;;;5076370;28;20036;-77
2023/03/28 09:02:39;;;;;;;8.18;1.67;;;8.20;99.90;;;;;;5077613;28;20044;-76
2023/03/28 09:05:11;;;;;;;8.00;1.98;;;8.30;99.90;;;;;;5058871;28;20464;-77
2023/03/28 09:07:54;;;;;;;;;;;8.40;99.90;;;;;;5095978;28;20056;-77
2023/03/28 09:10:40;;;;;;;6.63;1.80;;;8.40;99.90;;;;;;5077819;28;19916;-77
2023/03/28 09:13:27;;;;;;;9.57;1.52;;;8.40;99.90;;;;;;5077186;28;20409;-77
2023/03/28 09:16:23;;;;;;;6.18;1.70;;;8.50;99.90;;;;;;5077215;28;20055;-77
2023/03/28 09:19:09;;;;;;;8.00;1.90;;;8.70;99.90;;;;;;5056448;28;20051;-77
2023/03/28 09:21:47;;;;;;;6.38;1.77;;;9.00;99.90;;;;;;5070326;28;20059;-77
2023/03/28 09:24:19;;;;;;;8.25;1.63;;;9.20;99.90;;;;;;5077219;28;20432;-77
2023/03/28 09:27:11;;;;;;;7.97;1.90;;;9.40;99.90;;;;;;5058483;28;20127;-77
2023/03/28 09:29:39;;;;;;;10.05;2.22;;;9.60;99.90;;;;;;5075265;28;20097;-77
2023/03/28 09:32:16;;;;;;;9.23;1.83;;;9.80;99.90;;;;;;5058194;28;20384;-77
2023/03/28 09:34:48;;;;;;;6.82;1.50;;;9.80;99.90;;;;;;5072652;28;20382;-77
2023/03/28 09:37:40;;;;;;;9.73;1.80;;;9.80;99.90;;;;;;5075794;28;20047;-77
2023/03/28 09:40:25;;;;;;;7.85;1.83;;;9.80;99.90;;;;;;5076189;28;20044;-77
2023/03/28 09:42:55;;;;;;;7.72;1.73;;;9.90;99.90;;;;;;5075230;28;20039;-77
2023/03/28 09:45:57;;;;;;;5.43;1.42;;;10.10;96.80;;;;;;5075763;28;20043;-77
2023/03/28 09:48:35;;;;;;;8.25;1.70;;;10.20;96.40;;;;;;5070776;28;20048;-77
2023/03/28 09:51:02;;;;;;;8.40;1.70;;;10.10;96.00;;;;;;5075402;28;20052;-78
2023/03/28 09:53:31;;;;;;;7.10;1.65;;;10.00;96.20;;;;;;5075162;28;20048;-78
2023/03/28 09:56:02;;;;;;;6.60;1.52;;;10.00;94.40;;;;;;5076588;28;20100;-77
2023/03/28 09:58:28;;;;;;;6.82;1.50;;;9.70;93.60;;;;;;5049564;28;20045;-77
2023/03/28 10:00:54;;;;;;;6.93;1.38;;;9.60;93.90;;;;;;5075600;28;20074;-77
2023/03/28 10:03:29;;;;;;;8.02;1.50;;;9.60;92.90;;;;;;5092316;28;20044;-77
2023/03/28 10:05:59;;;;;;;6.30;1.45;;;9.80;92.50;;;;;;5074895;28;20048;-77
2023/03/28 10:08:34;;;;;;;6.95;1.35;;;10.10;94.20;;;;;;5075003;28;20097;-78
2023/03/28 10:11:11;;;;;;;5.18;1.35;;;10.40;92.70;;;;;;5075604;28;20430;-77
2023/03/28 10:13:49;;;;;;;5.78;1.35;;;10.40;93.80;;;;;;5073184;28;20036;-77
2023/03/28 10:16:29;;;;;;;7.65;1.58;;;10.70;94.30;;;;;;5078103;28;20036;-77
2023/03/28 10:18:55;;;;;;;8.43;1.80;;;10.90;92.20;;;;;;5054444;28;20048;-77
2023/03/28 10:21:24;;;;;;;7.32;1.40;;;11.00;93.90;;;;;;5085119;28;20547;-78
2023/03/28 10:24:04;;;;;;;5.80;1.42;;;11.20;91.80;;;;;;5087764;28;20047;-78
2023/03/28 10:26:30;;;;;;;4.82;1.13;;;11.50;93.30;;;;;;5060578;28;20113;-78
2023/03/28 10:29:00;;;;;;;5.68;1.30;;;11.50;89.80;;;;;;5080236;28;20052;-77
2023/03/28 10:31:29;;;;;;;6.10;1.33;;;11.30;82.80;;;;;;5058166;28;20475;-77
2023/03/28 10:34:01;;;;;;;3.38;0.90;;;11.30;84.00;;;;;;5077183;28;20051;-77
2023/03/28 10:36:30;;;;;;;;;;;11.30;76.70;;;;;;5062415;28;20426;-77
2023/03/28 10:38:56;;;;;;;4.68;1.00;;;11.50;82.00;;;;;;5074033;28;19916;-78
2023/03/28 10:41:31;;;;;;;7.47;1.52;;;11.50;80.10;;;;;;5071535;28;20039;-78
2023/03/28 10:43:57;;;;;;;5.78;1.40;;;11.50;82.00;;;;;;5061396;28;20101;-78
2023/03/28 10:46:31;;;;;;;5.78;1.27;;;11.30;78.90;;;;;;5061747;28;20051;-77
2023/03/28 10:49:06;;;;;;;3.30;1.00;;;11.30;79.30;;;;;;5092182;28;20101;-79
2023/03/28 10:51:36;;;;;;;7.28;1.30;;;11.40;80.60;;;;;;5083250;28;20367;-78
2023/03/28 10:54:30;;;;;;;5.28;1.27;;;11.30;78.90;;;;;;5057684;28;20142;-78
2023/03/28 10:57:03;;;;;;;5.20;1.30;;;10.80;74.90;;;;;;5057567;28;20473;-77
2023/03/28 10:59:52;;;;;;;4.85;1.10;;;10.50;76.50;;;;;;5072690;28;20052;-77
2023/03/28 11:02:18;;;;;;;6.65;1.20;;;10.20;75.40;;;;;;5088603;28;20492;-77
2023/03/28 11:05:27;;;;;;;5.78;1.40;;;9.90;75.90;;;;;;5071498;28;20102;-77
2023/03/28 11:08:18;;;;;;;5.88;1.50;;;9.90;84.70;;;;;;5072511;28;20504;-78
2023/03/28 11:11:05;;;;;;;7.22;1.52;;;10.20;85.90;;;;;;5055966;28;20040;-78
2023/03/28 11:13:51;;;;;;;5.05;1.17;;;10.20;83.70;;;;;;5090396;28;20371;-79
2023/03/28 11:16:38;;;;;;;7.25;1.77;;;10.10;82.70;;;;;;5059618;28;20076;-78
2023/03/28 11:19:07;;;;;;;6.50;1.70;;;10.00;85.30;;;;;;5072033;28;20043;-78
2023/03/28 11:22:11;;;;;;;7.93;1.65;;;9.80;86.10;;;;;;5071528;28;20056;-78
2023/03/28 11:25:01;;;;;;;6.38;1.48;;;9.80;83.70;;;;;;5064472;28;20404;-78
2023/03/28 11:28:04;;;;;;;4.55;1.27;;;9.70;83.10;;;;;;5089266;28;20048;-78
2023/03/28 11:30:34;;;;;;;7.30;1.50;;;9.60;82.60;;;;;;5051086;28;20052;-78
2023/03/28 11:33:12;;;;;;;8.20;1.50;;;9.60;83.20;;;;;;5072703;28;20072;-76
2023/03/28 11:35:43;;;;;;;7.65;1.50;;;9.70;86.90;;;;;;5072378;28;20075;-77
2023/03/28 11:38:23;;;;;;;6.93;1.80;;;9.70;85.80;;;;;;5074515;28;20039;-77
2023/03/28 11:41:10;;;;;;;5.13;1.40;;;9.60;86.30;;;;;;5074167;28;20043;-77
2023/03/28 11:44:15;;;;;;;6.10;1.50;;;9.70;86.50;;;;;;5047129;28;20041;-77
2023/03/28 11:46:47;;;;;;;6.60;1.50;;;10.00;88.40;;;;;;5049418;28;20040;-77
2023/03/28 11:49:31;;;;;;;7.07;1.50;;;10.20;86.60;;;;;;5086014;28;20040;-77
2023/03/28 11:51:56;;;;;;;6.60;1.60;;;10.30;85.00;;;;;;5073587;28;20051;-77
2023/03/28 11:54:46;;;;;;;6.97;1.70;;;10.40;82.10;;;;;;5080358;28;20036;-77
2023/03/28 11:57:28;;;;;;;5.80;1.40;;;10.50;81.00;;;;;;5060424;28;20045;-77
2023/03/28 11:59:56;;;;;;;5.07;1.63;;;10.60;83.40;;;;;;5076662;28;20122;-77
2023/03/28 12:02:44;;;;;;;7.57;1.70;;;10.60;80.90;;;;;;5076587;28;20126;-77
2023/03/28 12:05:21;;;;;;;7.05;1.70;;;10.50;82.50;;;;;;5076582;28;20101;-77
2023/03/28 12:07:54;;;;;;;6.72;1.58;;;10.20;83.80;;;;;;5077637;28;20087;-77
2023/03/28 12:10:24;;;;;;;7.38;1.88;;;10.10;82.50;;;;;;5077653;28;20490;-76
2023/03/28 12:13:21;;;;;;;8.18;1.70;;;9.90;86.00;;;;;;5064402;28;20044;-77
2023/03/28 12:15:56;;;;;;;7.18;1.60;;;10.10;86.50;;;;;;5077951;28;20055;-76
2023/03/28 12:18:30;;;;;;;8.10;1.83;;;10.00;83.50;;;;;;5056674;28;20044;-77
2023/03/28 12:21:27;;;;;;;6.35;1.85;;;10.20;87.40;;;;;;5066057;28;20052;-79
2023/03/28 12:24:23;;;;;;;6.60;1.90;;;10.40;85.70;;;;;;5076668;28;20032;-77
2023/03/28 12:27:14;;;;;;;5.75;1.40;;;10.30;83.10;;;;;;5077878;28;20527;-77
2023/03/28 12:29:55;;;;;;;6.43;1.65;;;10.30;83.70;;;;;;5052420;28;20044;-77
2023/03/28 12:32:28;;;;;;;7.05;1.75;;;10.50;83.70;;;;;;5072710;28;20181;-77
2023/03/28 12:35:16;;;;;;;6.72;1.80;;;10.50;83.10;;;;;;5062081;28;20076;-77
2023/03/28 12:38:05;;;;;;;6.88;1.83;;;10.40;83.70;;;;;;5074855;28;20039;-79
2023/03/28 12:40:55;;;;;;;5.95;1.83;;;10.30;85.00;;;;;;5077206;28;20076;-77
2023/03/28 12:43:45;;;;;;;6.28;1.95;;;10.30;87.20;;;;;;5066092;28;20055;-77
2023/03/28 12:46:19;;;;;;;7.90;2.08;;;10.40;83.70;;;;;;5094789;28;20036;-77
2023/03/28 12:48:55;;;;;;;7.43;1.90;;;10.40;82.80;;;;;;5076820;28;20040;-77
2023/03/28 12:51:49;;;;;;;8.43;2.15;;;10.40;84.40;;;;;;5077490;28;20249;-80
2023/03/28 12:54:15;;;;;;;7.40;2.00;;;10.50;86.50;;;;;;5093537;28;20437;-79
2023/03/28 12:57:06;;;;;;;6.53;2.00;;;10.60;86.10;;;;;;5093522;28;20040;-78
2023/03/28 12:59:57;;;;;;;6.25;1.92;;;10.60;82.10;;;;;;5074489;28;20055;-78
2023/03/28 13:02:38;;;;;;;6.70;2.00;;;10.60;82.70;;;;;;5049279;28;20044;-77
2023/03/28 13:05:05;;;;;;;6.45;2.20;;;10.70;86.00;;;;;;5076950;28;20054;-80
2023/03/28 13:07:45;;;;;;;5.88;1.90;;;10.60;83.00;;;;;;5076942;28;20051;-77
2023/03/28 13:10:41;;;;;;;6.45;2.05;;;10.60;82.40;;;;;;5075638;28;20047;-77
2023/03/28 13:13:27;;;;;;;8.30;2.20;;;10.40;82.70;;;;;;5076193;28;20036;-78
2023/03/28 13:16:12;;;;;;;7.15;2.28;;;10.30;83.00;;;;;;5076641;28;20044;-77
2023/03/28 13:18:47;;;;;;;7.78;2.17;;;10.30;81.70;;;;;;5075452;28;20040;-77